Time;durP1;ratioP1;P1;durP2;ratioP2;P2;SDS_P1;SDS_P2;PMS_P1;PMS_P2;Temp;Humidity;BMP_temperature;BMP_pressure;BME280_temperature;BME280_humidity;BME280_pressure;Samples;Min_cycle;Max_cycle;Signal;HPM_P1;HPM_P2
2020/12/26 00:00:51;;;;;;;12.67;11.57;;;0.70;99.90;;;;;;5030708;28;20643;-88
2020/12/26 00:03:18;;;;;;;14.53;12.20;;;0.80;99.90;;;;;;5034489;28;20627;-88
2020/12/26 00:05:46;;;;;;;13.73;12.20;;;0.70;99.90;;;;;;5037229;28;20602;-88
2020/12/26 00:08:13;;;;;;;15.07;13.57;;;0.70;99.90;;;;;;5038587;28;20635;-88
2020/12/26 00:10:39;;;;;;;13.33;12.10;;;0.70;99.90;;;;;;5032737;28;20685;-89
2020/12/26 00:13:05;;;;;;;13.10;11.80;;;0.70;99.90;;;;;;5028633;28;20626;-88
2020/12/26 00:15:32;;;;;;;13.67;12.37;;;0.60;99.90;;;;;;5036233;28;20632;-88
2020/12/26 00:17:59;;;;;;;14.20;12.80;;;0.60;99.90;;;;;;5034672;28;20695;-89
2020/12/26 00:20:26;;;;;;;13.70;12.43;;;0.70;99.90;;;;;;5040515;28;20650;-89
2020/12/26 00:22:53;;;;;;;13.13;11.93;;;0.70;99.90;;;;;;5037373;28;20617;-88
2020/12/26 00:25:19;;;;;;;14.17;12.87;;;0.60;99.90;;;;;;5037098;28;20639;-88
2020/12/26 00:27:45;;;;;;;13.57;12.37;;;0.70;99.90;;;;;;5040786;28;20669;-88
2020/12/26 00:30:12;;;;;;;14.23;12.80;;;0.60;99.90;;;;;;5033664;28;21160;-87
2020/12/26 00:32:38;;;;;;;13.47;12.33;;;0.60;99.90;;;;;;5031003;28;20628;-88
2020/12/26 00:35:04;;;;;;;13.10;11.83;;;0.60;99.90;;;;;;5040067;28;21470;-87
2020/12/26 00:37:37;;;;;;;14.17;12.80;;;0.70;99.90;;;;;;5052548;28;20642;-87
2020/12/26 00:40:03;;;;;;;15.03;13.43;;;0.50;99.90;;;;;;5049809;28;21169;-87
2020/12/26 00:42:30;;;;;;;15.20;13.10;;;0.50;99.90;;;;;;5050818;28;20649;-88
2020/12/26 00:44:57;;;;;;;13.80;12.50;;;0.50;99.90;;;;;;5057217;28;20623;-87
2020/12/26 00:47:23;;;;;;;14.70;13.30;;;0.40;99.90;;;;;;5052589;28;20673;-87
2020/12/26 00:49:50;;;;;;;16.70;15.30;;;0.30;99.90;;;;;;5044454;28;20635;-87
2020/12/26 00:52:16;;;;;;;13.73;12.43;;;0.20;99.90;;;;;;5041183;28;20644;-88
2020/12/26 00:54:43;;;;;;;13.80;12.53;;;0.20;99.90;;;;;;5044332;28;20637;-88
2020/12/26 00:57:09;;;;;;;13.97;12.57;;;0.20;99.90;;;;;;5047815;28;20618;-87
2020/12/26 00:59:35;;;;;;;14.40;13.10;;;0.10;99.90;;;;;;5041524;28;20693;-86
2020/12/26 01:02:02;;;;;;;13.90;12.60;;;0.10;99.90;;;;;;5045336;28;20623;-86
2020/12/26 01:04:28;;;;;;;13.13;12.03;;;0.10;99.90;;;;;;5044998;28;20724;-88
2020/12/26 01:06:55;;;;;;;14.63;13.10;;;0.10;99.90;;;;;;5037479;28;20681;-87
2020/12/26 01:09:21;;;;;;;13.17;11.97;;;0.10;99.90;;;;;;5029606;28;21240;-87
2020/12/26 01:11:49;;;;;;;14.37;12.87;;;0.20;99.90;;;;;;5028826;28;20662;-87
2020/12/26 01:14:15;;;;;;;14.23;12.90;;;0.10;99.90;;;;;;5040897;28;20640;-87
2020/12/26 01:16:41;;;;;;;15.37;13.20;;;0.00;99.90;;;;;;5036926;28;20642;-87
2020/12/26 01:19:08;;;;;;;15.27;13.67;;;-0.10;99.90;;;;;;5038346;28;20641;-88
2020/12/26 01:21:34;;;;;;;13.37;12.20;;;0.10;99.90;;;;;;5033488;28;20651;-87
2020/12/26 01:24:00;;;;;;;14.43;13.13;;;0.10;99.90;;;;;;5035179;28;21215;-88
2020/12/26 01:26:26;;;;;;;14.27;12.97;;;0.00;99.90;;;;;;5034038;28;20623;-88
2020/12/26 01:28:54;;;;;;;14.80;13.27;;;0.00;99.90;;;;;;5034557;28;20681;-88
2020/12/26 01:31:20;;;;;;;13.93;12.63;;;-0.10;99.90;;;;;;5030087;28;20686;-87
2020/12/26 01:33:46;;;;;;;14.17;12.80;;;-0.20;99.90;;;;;;5039347;28;20612;-88
2020/12/26 01:36:13;;;;;;;15.17;13.60;;;-0.20;99.90;;;;;;5038749;28;20623;-88
2020/12/26 01:38:40;;;;;;;13.73;12.40;;;-0.20;99.90;;;;;;5036326;28;20642;-88
2020/12/26 01:41:06;;;;;;;13.50;12.20;;;-0.20;99.90;;;;;;5040728;28;21008;-88
2020/12/26 01:43:32;;;;;;;12.80;11.67;;;-0.20;99.90;;;;;;5034664;28;20627;-88
2020/12/26 01:46:01;;;;;;;12.70;11.50;;;-0.20;99.90;;;;;;5032707;28;20642;-87
2020/12/26 01:48:27;;;;;;;13.80;12.43;;;-0.10;99.90;;;;;;5037776;28;20599;-87
2020/12/26 01:50:55;;;;;;;14.33;12.47;;;-0.10;99.90;;;;;;5035150;28;20673;-87
2020/12/26 01:53:22;;;;;;;13.80;11.20;;;-0.10;99.90;;;;;;5032102;28;21227;-90
2020/12/26 01:55:49;;;;;;;13.97;11.87;;;0.00;99.90;;;;;;5036458;28;20638;-88
2020/12/26 01:58:16;;;;;;;12.80;11.47;;;-0.10;99.90;;;;;;5035252;28;20615;-87
2020/12/26 02:00:43;;;;;;;14.30;12.83;;;-0.30;99.90;;;;;;5036996;28;20639;-89
2020/12/26 02:03:11;;;;;;;13.73;12.33;;;-0.30;99.90;;;;;;5032151;28;20650;-87
2020/12/26 02:05:37;;;;;;;13.30;12.00;;;-0.30;99.90;;;;;;5029514;28;20631;-87
2020/12/26 02:08:05;;;;;;;18.73;12.70;;;-0.20;99.90;;;;;;5035690;28;21211;-89
2020/12/26 02:10:34;;;;;;;12.60;11.40;;;-0.20;99.90;;;;;;5036860;28;20693;-88
2020/12/26 02:13:00;;;;;;;13.33;12.07;;;-0.20;99.90;;;;;;5039203;28;20697;-89
2020/12/26 02:15:26;;;;;;;12.70;11.50;;;-0.10;99.90;;;;;;5040810;28;20629;-88
2020/12/26 02:17:53;;;;;;;14.20;12.90;;;0.00;99.90;;;;;;5032212;28;21236;-89
2020/12/26 02:20:20;;;;;;;13.60;12.30;;;0.00;99.90;;;;;;5039228;28;20662;-89
2020/12/26 02:22:48;;;;;;;16.03;13.40;;;0.10;99.90;;;;;;5035981;28;20637;-88
2020/12/26 02:25:15;;;;;;;14.73;13.23;;;0.20;99.90;;;;;;5034364;28;21170;-88
2020/12/26 02:27:41;;;;;;;13.97;12.07;;;0.20;99.90;;;;;;5042276;28;20624;-88
2020/12/26 02:30:08;;;;;;;13.60;12.33;;;0.40;99.90;;;;;;5035188;28;20705;-89
2020/12/26 02:32:34;;;;;;;15.30;11.87;;;0.30;99.90;;;;;;5035663;28;20655;-88
2020/12/26 02:35:00;;;;;;;13.60;12.40;;;0.30;99.90;;;;;;5029383;28;20633;-87
2020/12/26 02:37:29;;;;;;;13.27;12.00;;;0.30;99.90;;;;;;5028208;28;20650;-88
2020/12/26 02:39:55;;;;;;;13.33;12.03;;;0.30;99.90;;;;;;5034173;28;21197;-89
2020/12/26 02:42:22;;;;;;;14.17;12.97;;;0.40;99.90;;;;;;5036508;28;20619;-86
2020/12/26 02:44:49;;;;;;;13.60;12.23;;;0.40;99.90;;;;;;5033640;28;20650;-90
2020/12/26 02:47:15;;;;;;;15.03;13.40;;;0.40;99.90;;;;;;5034967;28;20603;-87
2020/12/26 02:49:42;;;;;;;12.90;11.80;;;0.50;99.90;;;;;;5035316;28;20631;-88
2020/12/26 02:52:08;;;;;;;14.10;12.53;;;0.60;99.90;;;;;;5038994;28;20678;-89
2020/12/26 02:54:34;;;;;;;13.73;12.57;;;0.70;99.90;;;;;;5042888;28;20642;-89
2020/12/26 02:57:00;;;;;;;14.43;12.93;;;0.70;99.90;;;;;;5034172;28;20626;-89
2020/12/26 02:59:28;;;;;;;14.20;12.90;;;0.60;99.90;;;;;;5032947;28;20615;-89
2020/12/26 03:01:54;;;;;;;14.17;12.93;;;0.80;99.90;;;;;;5033787;28;20615;-88
2020/12/26 03:04:20;;;;;;;14.57;13.13;;;0.90;99.90;;;;;;5034970;28;20639;-89
2020/12/26 03:06:47;;;;;;;13.90;12.50;;;0.90;99.90;;;;;;5040812;28;20634;-89
2020/12/26 03:09:13;;;;;;;13.47;12.10;;;0.80;99.90;;;;;;5036033;28;20731;-89
2020/12/26 03:11:40;;;;;;;14.20;12.80;;;0.80;99.90;;;;;;5030086;28;20777;-89
2020/12/26 03:14:06;;;;;;;13.20;11.90;;;0.90;99.90;;;;;;5040801;28;20638;-89
2020/12/26 03:16:40;;;;;;;13.70;12.57;;;0.90;99.90;;;;;;5030669;28;20710;-88
2020/12/26 03:19:07;;;;;;;15.40;12.40;;;0.90;99.90;;;;;;5027510;28;21054;-87
2020/12/26 03:21:33;;;;;;;14.00;12.70;;;1.00;99.90;;;;;;5027372;28;20655;-87
2020/12/26 03:24:00;;;;;;;14.20;12.90;;;1.00;99.90;;;;;;5036860;28;20626;-87
2020/12/26 03:26:31;;;;;;;13.60;12.20;;;0.90;99.90;;;;;;5039119;28;20639;-88
2020/12/26 03:28:57;;;;;;;14.03;12.60;;;0.80;99.90;;;;;;5033420;28;20645;-88
2020/12/26 03:31:26;;;;;;;14.23;12.97;;;0.90;99.90;;;;;;5028353;28;20685;-88
2020/12/26 03:33:53;;;;;;;14.83;13.07;;;1.00;99.90;;;;;;5031333;28;20680;-87
2020/12/26 03:36:19;;;;;;;14.93;13.53;;;1.10;99.90;;;;;;5035740;28;20644;-88
2020/12/26 03:38:45;;;;;;;14.47;13.17;;;1.10;99.90;;;;;;5036165;28;20642;-88
2020/12/26 03:41:12;;;;;;;14.23;12.93;;;1.00;99.90;;;;;;5039267;28;20658;-87
2020/12/26 03:43:39;;;;;;;13.93;12.57;;;1.00;99.90;;;;;;5039141;28;20976;-87
2020/12/26 03:46:05;;;;;;;14.03;12.43;;;0.90;99.90;;;;;;5026984;28;20642;-89
2020/12/26 03:48:32;;;;;;;15.10;13.77;;;0.80;99.90;;;;;;5028794;28;20639;-87
2020/12/26 03:50:59;;;;;;;16.10;14.50;;;0.80;99.90;;;;;;5031790;28;20671;-87
2020/12/26 03:53:25;;;;;;;14.27;13.03;;;0.80;99.90;;;;;;5029986;28;20646;-88
2020/12/26 03:55:51;;;;;;;14.83;13.43;;;0.80;99.90;;;;;;5033329;28;20635;-87
2020/12/26 03:58:17;;;;;;;14.83;13.40;;;0.90;99.90;;;;;;5031497;28;20633;-87
2020/12/26 04:00:45;;;;;;;12.67;11.53;;;0.90;99.90;;;;;;5032199;28;20648;-88
2020/12/26 04:03:11;;;;;;;14.13;12.80;;;1.00;99.90;;;;;;5030267;28;20614;-88
2020/12/26 04:05:37;;;;;;;13.90;12.50;;;1.10;99.90;;;;;;5032268;28;20669;-87
2020/12/26 04:08:04;;;;;;;15.30;13.93;;;1.10;99.90;;;;;;5032178;28;21196;-87
2020/12/26 04:10:33;;;;;;;15.60;14.03;;;1.10;99.90;;;;;;5035364;28;21125;-88
2020/12/26 04:12:59;;;;;;;15.70;14.20;;;1.00;99.90;;;;;;5027387;28;20663;-87
2020/12/26 04:15:25;;;;;;;14.90;13.60;;;1.00;99.90;;;;;;5040171;28;20634;-87
2020/12/26 04:17:51;;;;;;;14.77;13.47;;;0.90;99.90;;;;;;5031528;28;20623;-87
2020/12/26 04:20:18;;;;;;;13.27;12.10;;;0.90;99.90;;;;;;5033883;28;20705;-88
2020/12/26 04:22:44;;;;;;;14.80;13.40;;;1.00;99.90;;;;;;5032940;28;20615;-88
2020/12/26 04:25:11;;;;;;;15.33;13.93;;;1.00;99.90;;;;;;5027507;28;20626;-87
2020/12/26 04:27:37;;;;;;;13.93;12.63;;;1.00;99.90;;;;;;5032082;28;20639;-89
2020/12/26 04:30:06;;;;;;;14.30;13.00;;;0.90;99.90;;;;;;5033086;28;20708;-89
2020/12/26 04:32:33;;;;;;;14.80;13.40;;;0.90;99.90;;;;;;5033422;28;20666;-89
2020/12/26 04:34:59;;;;;;;14.83;13.43;;;1.10;99.90;;;;;;5032027;28;20634;-89
2020/12/26 04:37:26;;;;;;;14.97;13.67;;;1.20;99.90;;;;;;5035267;28;20635;-88
2020/12/26 04:39:52;;;;;;;15.97;14.50;;;1.20;99.90;;;;;;5033683;28;20659;-87
2020/12/26 04:42:22;;;;;;;15.20;13.60;;;1.20;99.90;;;;;;5033729;28;20629;-89
2020/12/26 04:44:48;;;;;;;14.70;13.40;;;1.20;99.90;;;;;;5033825;28;20608;-88
2020/12/26 04:47:21;;;;;;;15.43;14.13;;;1.20;99.90;;;;;;5033581;28;20643;-88
2020/12/26 04:49:53;;;;;;;15.20;13.80;;;1.30;99.90;;;;;;5041286;28;20661;-89
2020/12/26 04:52:25;;;;;;;13.93;12.63;;;1.20;99.90;;;;;;5039252;28;20667;-88
2020/12/26 04:54:53;;;;;;;15.50;13.90;;;1.20;99.90;;;;;;5032478;28;20644;-87
2020/12/26 04:57:21;;;;;;;14.60;13.30;;;1.20;99.90;;;;;;5030053;28;20618;-88
2020/12/26 04:59:47;;;;;;;15.20;13.80;;;1.20;99.90;;;;;;5031108;28;20646;-89
2020/12/26 05:02:15;;;;;;;15.90;14.53;;;1.20;99.90;;;;;;5031812;28;20623;-87
2020/12/26 05:04:42;;;;;;;15.10;13.70;;;1.10;99.90;;;;;;5028053;28;20727;-88
2020/12/26 05:07:10;;;;;;;15.57;13.83;;;1.00;99.90;;;;;;5032777;28;20637;-90
2020/12/26 05:09:37;;;;;;;14.93;13.53;;;1.00;99.90;;;;;;5035698;28;21222;-89
2020/12/26 05:12:05;;;;;;;15.50;13.90;;;0.90;99.90;;;;;;5030046;28;20786;-90
2020/12/26 05:14:32;;;;;;;15.00;13.60;;;0.90;99.90;;;;;;5032357;28;21190;-89
2020/12/26 05:17:00;;;;;;;15.10;13.80;;;0.80;99.90;;;;;;5030409;28;20942;-89
2020/12/26 05:19:28;;;;;;;14.93;13.60;;;1.10;99.90;;;;;;5031895;28;20620;-87
2020/12/26 05:21:55;;;;;;;14.70;13.47;;;1.10;99.90;;;;;;5030833;28;20621;-88
2020/12/26 05:24:21;;;;;;;14.90;13.50;;;1.10;99.90;;;;;;5029673;28;20623;-87
2020/12/26 05:26:49;;;;;;;14.80;13.30;;;1.10;99.90;;;;;;5032728;28;20626;-87
2020/12/26 05:29:18;;;;;;;15.10;13.50;;;1.20;99.90;;;;;;5031079;28;20679;-88
2020/12/26 05:32:04;;;;;;;14.50;13.17;;;1.20;99.90;;;;;;5037472;28;20671;-89
2020/12/26 05:34:32;;;;;;;15.67;13.03;;;1.10;99.90;;;;;;5037855;28;20631;-89
2020/12/26 05:36:59;;;;;;;15.57;14.03;;;1.20;99.90;;;;;;5037206;28;20991;-88
2020/12/26 05:39:30;;;;;;;14.90;13.40;;;1.20;99.90;;;;;;5026662;28;20626;-88
2020/12/26 05:41:57;;;;;;;14.90;13.50;;;1.20;99.90;;;;;;5020291;28;20631;-89
2020/12/26 05:44:28;;;;;;;14.47;13.27;;;1.20;99.90;;;;;;5030602;28;20634;-91
2020/12/26 05:46:55;;;;;;;17.60;13.87;;;1.20;99.90;;;;;;5029089;28;20631;-90
2020/12/26 05:49:29;;;;;;;16.77;15.00;;;1.10;99.90;;;;;;5030777;28;20611;-89
2020/12/26 05:52:05;;;;;;;15.83;14.33;;;1.20;99.90;;;;;;5029923;28;20670;-90
2020/12/26 05:54:31;;;;;;;14.80;13.20;;;1.20;99.90;;;;;;5034343;28;20611;-90
2020/12/26 05:57:12;;;;;;;15.07;13.57;;;1.20;99.90;;;;;;5030597;28;20632;-90
2020/12/26 05:59:41;;;;;;;16.00;14.40;;;1.10;99.90;;;;;;5034243;28;20704;-91
2020/12/26 06:02:19;;;;;;;16.27;14.77;;;1.20;99.90;;;;;;5031123;28;20655;-91
2020/12/26 06:04:52;;;;;;;14.97;13.47;;;1.20;99.90;;;;;;5032516;28;20665;-90
2020/12/26 06:07:22;;;;;;;16.40;14.70;;;1.30;99.90;;;;;;5038542;28;20627;-91
2020/12/26 06:09:52;;;;;;;16.07;14.47;;;1.30;99.90;;;;;;5031221;28;20643;-91
2020/12/26 06:12:24;;;;;;;14.53;13.03;;;1.50;99.90;;;;;;5038605;28;20669;-91
2020/12/26 06:14:51;;;;;;;13.93;12.70;;;1.40;99.90;;;;;;5034446;28;20627;-89
2020/12/26 06:17:23;;;;;;;14.90;13.40;;;1.50;99.90;;;;;;5029596;28;20627;-91
2020/12/26 06:19:55;;;;;;;14.77;13.47;;;1.50;99.90;;;;;;5033113;28;20666;-89
2020/12/26 06:22:23;;;;;;;16.10;14.53;;;1.50;99.90;;;;;;5033166;28;20603;-90
2020/12/26 06:24:50;;;;;;;15.27;13.77;;;1.50;99.90;;;;;;5031518;28;20634;-90
2020/12/26 06:27:23;;;;;;;14.90;13.33;;;1.50;99.90;;;;;;5036763;28;20583;-90
2020/12/26 06:29:49;;;;;;;16.50;14.80;;;1.40;99.90;;;;;;5037413;28;20662;-91
2020/12/26 06:32:16;;;;;;;17.90;16.30;;;1.50;99.90;;;;;;5036143;28;20630;-91
2020/12/26 06:34:49;;;;;;;17.23;15.37;;;1.60;99.90;;;;;;5032813;28;21364;-91
2020/12/26 06:37:19;;;;;;;17.13;15.57;;;1.60;99.90;;;;;;5033866;28;20622;-90
2020/12/26 06:39:45;;;;;;;17.00;14.73;;;1.60;99.90;;;;;;5028849;28;20712;-90
2020/12/26 06:42:14;;;;;;;16.23;14.60;;;1.60;99.90;;;;;;5035264;28;20641;-90
2020/12/26 06:44:41;;;;;;;16.93;15.13;;;1.60;99.90;;;;;;5040611;28;20637;-91
2020/12/26 06:47:09;;;;;;;17.50;15.43;;;1.40;99.90;;;;;;5035252;28;20635;-91
2020/12/26 06:49:36;;;;;;;17.70;15.87;;;1.30;99.90;;;;;;5038122;28;20719;-91
2020/12/26 06:52:04;;;;;;;17.90;16.33;;;1.40;99.90;;;;;;5046273;28;20662;-90
2020/12/26 06:54:43;;;;;;;18.33;16.40;;;1.40;99.90;;;;;;5035889;28;20630;-90
2020/12/26 06:57:39;;;;;;;18.03;16.07;;;1.30;99.90;;;;;;5036017;28;20630;-90
2020/12/26 07:00:29;;;;;;;16.93;15.33;;;1.20;99.90;;;;;;5029905;28;20685;-90
2020/12/26 07:03:23;;;;;;;16.60;14.50;;;1.30;99.90;;;;;;5041586;28;20703;-91
2020/12/26 07:05:56;;;;;;;16.77;15.07;;;1.40;99.90;;;;;;5046005;28;20627;-89
2020/12/26 07:08:29;;;;;;;16.87;15.17;;;1.40;99.90;;;;;;5042864;28;20613;-90
2020/12/26 07:10:58;;;;;;;17.20;15.50;;;1.40;99.90;;;;;;5034938;28;20682;-90
2020/12/26 07:13:48;;;;;;;17.90;16.10;;;1.40;99.90;;;;;;5043051;28;21509;-90
2020/12/26 07:16:38;;;;;;;16.70;14.90;;;1.40;99.90;;;;;;5039525;28;21208;-90
2020/12/26 07:19:39;;;;;;;16.10;14.40;;;1.40;99.90;;;;;;5040107;28;20638;-90
2020/12/26 07:22:10;;;;;;;16.27;14.77;;;1.40;99.90;;;;;;5034959;28;20657;-90
2020/12/26 07:24:40;;;;;;;16.93;14.97;;;1.50;99.90;;;;;;5037327;28;20599;-91
2020/12/26 07:27:33;;;;;;;16.50;14.97;;;1.50;99.90;;;;;;5048986;28;20985;-89
2020/12/26 07:30:17;;;;;;;15.97;13.73;;;1.40;99.90;;;;;;5041068;28;20642;-89
2020/12/26 07:32:53;;;;;;;16.20;14.70;;;1.50;99.90;;;;;;5035618;28;21228;-86
2020/12/26 07:35:41;;;;;;;15.07;13.57;;;1.40;99.90;;;;;;5042105;28;20629;-89
2020/12/26 07:38:16;;;;;;;15.00;13.50;;;1.40;99.90;;;;;;5031540;28;20991;-89
2020/12/26 07:40:50;;;;;;;15.73;14.27;;;1.30;99.90;;;;;;5036058;28;20748;-87
2020/12/26 07:43:19;;;;;;;17.17;15.50;;;1.30;99.90;;;;;;5037192;28;20649;-89
2020/12/26 07:45:47;;;;;;;17.20;15.50;;;1.20;99.90;;;;;;5040954;28;20643;-90
2020/12/26 07:48:13;;;;;;;16.83;15.23;;;1.20;99.90;;;;;;5035858;28;20608;-89
2020/12/26 07:50:42;;;;;;;16.43;14.80;;;1.20;99.90;;;;;;5034398;28;20652;-88
2020/12/26 07:53:10;;;;;;;15.90;14.30;;;1.20;99.90;;;;;;5038429;28;20635;-88
2020/12/26 07:55:37;;;;;;;16.03;14.53;;;1.20;99.90;;;;;;5029789;28;20673;-87
2020/12/26 07:58:05;;;;;;;15.73;14.30;;;1.20;99.90;;;;;;5031471;28;20635;-88
2020/12/26 08:00:34;;;;;;;16.23;14.73;;;1.20;99.90;;;;;;5033192;28;20655;-89
2020/12/26 08:03:02;;;;;;;16.30;14.80;;;1.20;99.90;;;;;;5037580;28;20999;-88
2020/12/26 08:05:30;;;;;;;17.60;15.80;;;1.30;99.90;;;;;;5037085;28;20634;-89
2020/12/26 08:07:57;;;;;;;17.07;14.80;;;1.40;99.90;;;;;;5036706;28;20615;-89
2020/12/26 08:10:24;;;;;;;14.80;13.30;;;1.30;99.90;;;;;;5035079;28;20673;-89
2020/12/26 08:12:52;;;;;;;17.10;15.47;;;1.30;99.90;;;;;;5031259;28;20665;-89
2020/12/26 08:15:20;;;;;;;15.57;14.07;;;1.40;99.90;;;;;;5029253;28;21235;-89
2020/12/26 08:17:58;;;;;;;15.40;14.07;;;1.60;99.90;;;;;;5027940;28;20626;-89
2020/12/26 08:20:26;;;;;;;17.40;15.60;;;1.70;99.90;;;;;;5030753;28;20658;-90
2020/12/26 08:22:54;;;;;;;15.77;14.37;;;1.60;99.90;;;;;;5029683;28;20686;-88
2020/12/26 08:25:25;;;;;;;19.33;14.63;;;1.60;99.90;;;;;;5046373;28;20693;-88
2020/12/26 08:27:55;;;;;;;15.60;14.10;;;1.70;99.90;;;;;;5041601;28;20658;-88
2020/12/26 08:30:26;;;;;;;16.33;14.63;;;1.70;99.90;;;;;;5031347;28;20647;-88
2020/12/26 08:33:17;;;;;;;16.83;13.73;;;1.60;99.90;;;;;;5035234;28;20660;-88
2020/12/26 08:35:49;;;;;;;15.00;13.40;;;1.70;99.90;;;;;;5033714;28;20621;-88
2020/12/26 08:38:24;;;;;;;14.90;13.50;;;1.80;99.90;;;;;;5029555;28;21045;-88
2020/12/26 08:40:58;;;;;;;15.23;13.63;;;1.90;99.90;;;;;;5030587;28;21272;-88
2020/12/26 08:43:26;;;;;;;15.83;14.30;;;1.90;99.90;;;;;;5031231;28;20628;-87
2020/12/26 08:45:53;;;;;;;17.47;15.70;;;1.90;99.90;;;;;;5029312;28;20745;-87
2020/12/26 08:48:23;;;;;;;14.20;12.83;;;2.10;99.90;;;;;;5030797;28;20643;-88
2020/12/26 08:51:01;;;;;;;15.00;13.50;;;2.00;99.90;;;;;;5034285;28;20866;-88
2020/12/26 08:53:27;;;;;;;16.00;14.40;;;2.10;99.90;;;;;;5033217;28;20626;-88
2020/12/26 08:55:55;;;;;;;15.23;13.73;;;2.30;99.90;;;;;;5033836;28;20623;-88
2020/12/26 08:58:27;;;;;;;14.77;13.47;;;2.40;99.90;;;;;;5035569;28;20631;-89
2020/12/26 09:00:56;;;;;;;15.70;14.07;;;2.30;99.90;;;;;;5030348;28;20632;-87
2020/12/26 09:03:26;;;;;;;15.87;14.20;;;2.40;99.90;;;;;;5032916;28;20681;-88
2020/12/26 09:05:54;;;;;;;16.47;14.57;;;2.50;99.90;;;;;;5035545;28;20764;-87
2020/12/26 09:08:28;;;;;;;15.07;13.67;;;2.60;99.90;;;;;;5037388;28;20721;-87
2020/12/26 09:11:03;;;;;;;15.00;13.23;;;2.80;99.90;;;;;;5035644;28;21158;-87
2020/12/26 09:13:32;;;;;;;13.70;12.20;;;3.00;99.90;;;;;;5034057;28;20972;-87
2020/12/26 09:16:01;;;;;;;13.20;11.90;;;3.10;99.90;;;;;;5032073;28;20628;-86
2020/12/26 09:18:39;;;;;;;15.00;12.73;;;3.10;99.90;;;;;;5026166;28;20742;-87
2020/12/26 09:21:06;;;;;;;13.30;12.20;;;3.10;99.90;;;;;;5029294;28;20651;-86
2020/12/26 09:23:34;;;;;;;12.47;11.20;;;3.00;99.90;;;;;;5028067;28;20639;-87
2020/12/26 09:26:14;;;;;;;13.90;12.50;;;3.00;99.90;;;;;;5024174;28;20623;-86
2020/12/26 09:28:48;;;;;;;14.00;12.50;;;3.00;99.90;;;;;;5025761;28;20630;-85
2020/12/26 09:31:16;;;;;;;13.07;11.77;;;3.10;99.90;;;;;;5030295;28;20756;-86
2020/12/26 09:33:43;;;;;;;15.37;12.63;;;3.20;99.90;;;;;;5027822;28;20612;-88
2020/12/26 09:36:12;;;;;;;14.93;13.37;;;3.10;99.90;;;;;;5022518;28;20628;-85
2020/12/26 09:38:39;;;;;;;13.03;11.83;;;3.10;99.90;;;;;;5038739;28;20634;-85
2020/12/26 09:41:14;;;;;;;11.70;10.50;;;3.30;99.90;;;;;;5033608;28;20706;-85
2020/12/26 09:43:41;;;;;;;13.13;11.93;;;3.50;99.90;;;;;;5031832;28;20632;-85
2020/12/26 09:46:07;;;;;;;10.77;9.77;;;3.80;99.90;;;;;;5035039;28;20654;-86
2020/12/26 09:48:34;;;;;;;11.60;10.50;;;3.80;99.90;;;;;;5036298;28;20596;-86
2020/12/26 09:51:03;;;;;;;11.90;9.87;;;4.00;99.90;;;;;;5027266;28;20654;-86
2020/12/26 09:53:29;;;;;;;9.47;8.67;;;4.10;99.90;;;;;;5024523;28;20638;-86
2020/12/26 09:55:56;;;;;;;10.30;9.30;;;4.40;99.90;;;;;;5032485;28;20629;-86
2020/12/26 09:58:22;;;;;;;9.70;8.80;;;4.50;99.90;;;;;;5032543;28;20718;-85
2020/12/26 10:00:48;;;;;;;9.93;8.93;;;4.20;99.90;;;;;;5029922;28;20645;-86
2020/12/26 10:03:16;;;;;;;12.00;10.80;;;4.20;99.90;;;;;;5033535;28;20639;-87
2020/12/26 10:05:42;;;;;;;9.77;8.80;;;4.40;99.90;;;;;;5033647;28;20590;-88
2020/12/26 10:08:13;;;;;;;10.97;9.87;;;4.40;99.90;;;;;;5035053;28;20625;-87
2020/12/26 10:10:40;;;;;;;11.13;9.57;;;4.40;99.90;;;;;;5035547;28;21239;-88
2020/12/26 10:13:07;;;;;;;11.20;10.10;;;4.30;99.90;;;;;;5031718;28;20686;-87
2020/12/26 10:15:33;;;;;;;9.53;8.70;;;4.30;99.90;;;;;;5038010;28;20644;-89
2020/12/26 10:17:59;;;;;;;11.73;8.77;;;4.40;99.90;;;;;;5035053;28;20638;-88
2020/12/26 10:20:25;;;;;;;10.70;9.70;;;4.40;99.90;;;;;;5030449;28;20739;-88
2020/12/26 10:22:52;;;;;;;9.97;9.07;;;4.60;99.90;;;;;;5038118;28;20984;-87
2020/12/26 10:25:24;;;;;;;10.33;9.53;;;4.60;99.90;;;;;;5038798;28;20621;-88
2020/12/26 10:27:53;;;;;;;11.03;10.00;;;4.80;99.90;;;;;;5038294;28;20687;-88
2020/12/26 10:30:20;;;;;;;10.77;9.77;;;5.00;99.90;;;;;;5041189;28;20655;-88
2020/12/26 10:32:47;;;;;;;8.40;7.70;;;5.00;99.90;;;;;;5029955;28;20666;-88
2020/12/26 10:35:13;;;;;;;10.67;7.67;;;5.10;99.90;;;;;;5032685;28;21179;-89
2020/12/26 10:37:40;;;;;;;9.03;8.10;;;5.10;99.90;;;;;;5024529;28;20722;-88
2020/12/26 10:40:08;;;;;;;9.63;8.53;;;4.90;99.90;;;;;;5025907;28;20666;-89
2020/12/26 10:42:35;;;;;;;10.17;7.90;;;5.20;99.90;;;;;;5036828;28;20709;-89
2020/12/26 10:45:02;;;;;;;9.40;8.60;;;5.30;99.90;;;;;;5029140;28;20625;-88
2020/12/26 10:47:28;;;;;;;8.10;7.50;;;5.10;99.90;;;;;;5037019;28;20658;-89
2020/12/26 10:49:54;;;;;;;8.73;8.03;;;5.10;99.90;;;;;;5032843;28;20616;-88
2020/12/26 10:52:21;;;;;;;9.13;8.30;;;5.20;99.90;;;;;;5037936;28;21341;-89
2020/12/26 10:54:47;;;;;;;8.00;7.20;;;5.20;99.90;;;;;;5037913;28;20628;-88
2020/12/26 10:57:14;;;;;;;9.67;8.80;;;5.00;99.90;;;;;;5052961;28;20600;-88
2020/12/26 10:59:41;;;;;;;9.60;8.10;;;5.10;99.90;;;;;;5051019;28;20634;-89
2020/12/26 11:02:08;;;;;;;16.60;10.47;;;5.20;99.90;;;;;;5045773;28;20644;-89
2020/12/26 11:04:34;;;;;;;8.47;7.67;;;5.20;99.90;;;;;;5054905;28;20650;-89
2020/12/26 11:07:01;;;;;;;7.60;6.80;;;5.40;99.90;;;;;;5053026;28;20662;-89
2020/12/26 11:09:30;;;;;;;9.13;8.03;;;5.30;99.90;;;;;;5053799;28;20623;-88
2020/12/26 11:11:57;;;;;;;7.40;6.63;;;5.40;99.90;;;;;;5049855;28;20727;-89
2020/12/26 11:14:23;;;;;;;7.27;6.67;;;5.40;99.90;;;;;;5058163;28;20637;-88
2020/12/26 11:16:52;;;;;;;5.70;5.10;;;5.30;99.90;;;;;;5053416;28;20627;-88
2020/12/26 11:19:21;;;;;;;6.13;5.47;;;5.50;99.90;;;;;;5051861;28;20638;-88
2020/12/26 11:21:51;;;;;;;8.10;6.40;;;5.70;99.90;;;;;;5056546;28;20697;-88
2020/12/26 11:24:20;;;;;;;7.33;6.60;;;5.80;99.90;;;;;;5055274;28;20649;-89
2020/12/26 11:26:47;;;;;;;7.60;6.90;;;5.90;99.90;;;;;;5052367;28;20698;-90
2020/12/26 11:29:14;;;;;;;7.47;6.77;;;5.80;99.90;;;;;;5056379;28;20600;-90
2020/12/26 11:31:41;;;;;;;8.33;6.50;;;6.00;99.90;;;;;;5055318;28;20686;-89
2020/12/26 11:34:11;;;;;;;6.47;5.53;;;6.00;99.90;;;;;;5042018;28;20634;-90
2020/12/26 11:36:38;;;;;;;5.27;4.70;;;6.10;99.90;;;;;;5033429;28;20977;-90
2020/12/26 11:39:06;;;;;;;7.30;5.70;;;5.90;99.90;;;;;;5040160;28;20655;-89
2020/12/26 11:41:32;;;;;;;5.17;4.43;;;6.10;99.90;;;;;;5027564;28;20664;-89
2020/12/26 11:43:59;;;;;;;5.17;4.67;;;6.20;99.90;;;;;;5032142;28;20712;-89
2020/12/26 11:46:26;;;;;;;5.40;4.90;;;6.10;99.70;;;;;;5029938;28;21548;-89
2020/12/26 11:49:03;;;;;;;4.97;4.50;;;6.10;99.90;;;;;;5036683;28;20651;-90
2020/12/26 11:51:31;;;;;;;4.97;4.47;;;5.90;99.80;;;;;;5033270;28;20735;-89
2020/12/26 11:53:59;;;;;;;5.20;4.70;;;5.80;99.90;;;;;;5038149;28;20753;-88
2020/12/26 11:56:28;;;;;;;7.40;5.47;;;5.90;99.90;;;;;;5033990;28;20849;-88
2020/12/26 11:58:55;;;;;;;4.77;4.37;;;5.90;99.90;;;;;;5038074;28;20630;-90
2020/12/26 12:01:23;;;;;;;5.60;5.10;;;5.90;99.90;;;;;;5028377;28;20686;-88
2020/12/26 12:03:49;;;;;;;5.40;4.53;;;6.20;99.30;;;;;;5032841;28;20659;-89
2020/12/26 12:06:17;;;;;;;5.60;4.43;;;6.40;98.90;;;;;;5037022;28;20633;-89
2020/12/26 12:08:46;;;;;;;4.70;4.30;;;6.10;99.30;;;;;;5040252;28;21254;-89
2020/12/26 12:11:16;;;;;;;6.00;5.40;;;6.40;98.60;;;;;;5034844;28;21169;-89
2020/12/26 12:13:42;;;;;;;5.20;4.70;;;6.40;99.10;;;;;;5042056;28;20694;-89
2020/12/26 12:16:12;;;;;;;5.20;4.70;;;6.40;99.80;;;;;;5035735;28;20703;-89
2020/12/26 12:18:39;;;;;;;7.80;4.73;;;6.40;98.40;;;;;;5027281;28;20686;-88
2020/12/26 12:21:06;;;;;;;5.10;4.47;;;6.60;98.40;;;;;;5032685;28;20629;-89
2020/12/26 12:23:34;;;;;;;4.90;4.00;;;6.60;98.40;;;;;;5038782;28;20663;-90
2020/12/26 12:26:04;;;;;;;6.13;4.63;;;6.70;97.20;;;;;;5022272;28;20608;-90
2020/12/26 12:28:30;;;;;;;5.77;4.23;;;6.60;97.40;;;;;;5032492;28;20676;-90
2020/12/26 12:30:57;;;;;;;5.00;4.50;;;6.40;97.30;;;;;;5034671;28;20632;-90
2020/12/26 12:33:23;;;;;;;5.13;4.70;;;6.30;98.10;;;;;;5031074;28;20717;-90
2020/12/26 12:35:49;;;;;;;4.80;4.30;;;6.40;98.80;;;;;;5035696;28;20655;-87
2020/12/26 12:38:16;;;;;;;5.77;5.33;;;6.50;98.90;;;;;;5031012;28;20630;-88
2020/12/26 12:40:42;;;;;;;5.67;4.13;;;6.50;98.40;;;;;;5028308;28;20987;-88
2020/12/26 12:43:09;;;;;;;4.23;3.83;;;6.30;98.60;;;;;;5030832;28;20714;-89
2020/12/26 12:45:36;;;;;;;5.07;4.67;;;6.30;99.10;;;;;;5025330;28;20679;-88
2020/12/26 12:48:03;;;;;;;5.50;4.70;;;6.10;99.60;;;;;;5040385;28;20642;-89